Latest Weather Observations for Evans Head

IDN60801

Issued at 8:32 pm EST Wednesday 29 June 2022 (issued every 10 minutes, with the page automatically refreshed every 10 minutes)

About weather observations | Map of weather stations | Latest weather observations for NSW | Other Formats
Station Details ID: 058212 Name: EVANS HEAD RAAF BOMBING RANGE AWS Lat: -29.18 Lon: 153.40 Height: 62.5 m
Data from the previous 72 hours. | See also: Recent months at Evans Head
Date/Time
EST
Temp
°C
App
Temp
°C
Dew
Point
°C
Rel
Hum
%
Delta-T
°C
Wind Press
QNH
hPa
Press
MSL
hPa
Rain since
9am
mm
Dir  Spd
km/h
Gust
km/h
Spd
kts
Gust
kts
29/08:30pm 13.9 11.9 11.4 85 1.3 SW 13 17 7 9 1024.2 1024.2 0.0
29/08:00pm 13.9 12.2 11.2 84 1.4 WSW 11 15 6 8 1024.3 1024.3 0.0
29/07:30pm 14.1 12.4 11.1 82 1.6 WSW 11 15 6 8 1024.1 1024.1 0.0
29/07:00pm 13.8 12.1 11.1 84 1.4 WSW 11 15 6 8 1023.9 1023.9 0.0
29/06:30pm 14.4 13.1 11.2 81 1.7 WSW 9 13 5 7 1023.8 1023.8 0.0
29/06:00pm 14.5 12.8 11.3 81 1.7 WSW 11 13 6 7 1023.6 1023.6 0.0
29/05:30pm 14.6 13.4 11.6 82 1.6 WSW 9 13 5 7 1023.5 1023.5 0.0
29/05:00pm 14.8 14.1 11.9 83 1.6 WNW 7 9 4 5 1023.4 1023.3 0.0
29/04:30pm 15.2 14.5 12.0 81 1.7 W 7 11 4 6 1023.3 1023.2 0.0
29/04:00pm 15.4 14.3 11.8 79 1.9 WSW 9 11 5 6 1023.3 1023.2 0.0
29/03:30pm 15.8 15.0 11.6 76 2.3 WSW 7 11 4 6 1023.3 1023.2 0.0
29/03:00pm 16.3 14.8 11.9 75 2.4 SSW 11 17 6 9 1023.5 1023.5 0.0
29/02:30pm 16.2 14.6 11.6 74 2.5 S 11 15 6 8 1023.7 1023.7 0.0
29/02:00pm 16.5 15.5 12.3 76 2.3 SW 9 15 5 8 1023.9 1023.9 0.0
29/01:30pm 16.1 14.7 12.1 77 2.2 ESE 11 19 6 10 1024.3 1024.3 0.0
29/01:00pm 16.7 15.1 11.4 71 2.9 S 11 17 6 9 1024.3 1024.3 0.0
29/12:30pm 16.8 14.9 11.9 73 2.7 S 13 20 7 11 1024.6 1024.6 0.0
29/12:00pm 16.5 13.7 11.2 71 2.8 S 17 24 9 13 1024.9 1024.9 0.0
29/11:30am 17.3 15.5 12.2 72 2.8 SSW 13 19 7 10 1025.4 1025.4 0.0
29/11:00am 17.1 15.4 12.4 74 2.6 SSW 13 20 7 11 1025.7 1025.7 0.0
29/10:30am 15.8 14.4 12.2 79 2.0 SSW 11 19 6 10 1026.0 1026.0 0.0
29/10:00am 15.5 13.6 11.9 79 1.9 S 13 20 7 11 1026.0 1026.0 0.0
29/09:30am 14.4 13.0 12.3 87 1.1 SW 11 15 6 8 1026.0 1026.0 0.0
29/09:00am 13.5 11.2 11.6 88 1.0 SW 15 24 8 13 1025.9 1025.9 6.8
29/08:30am 12.4 10.6 10.8 90 0.8 SW 11 17 6 9 1025.7 1025.7 6.8
29/08:00am 11.9 9.6 10.5 91 0.7 WSW 13 17 7 9 1025.5 1025.5 6.8
29/07:30am 11.5 8.7 10.1 91 0.7 WSW 15 20 8 11 1025.2 1025.2 6.8
29/07:00am 11.4 8.6 10.1 92 0.7 WSW 15 20 8 11 1025.1 1025.1 6.8
29/06:30am 11.3 8.6 10.4 94 0.5 WSW 15 20 8 11 1024.8 1024.8 6.8
29/06:00am 11.3 9.0 10.5 95 0.4 WSW 13 20 7 11 1024.7 1024.7 6.8
29/05:30am 11.3 9.4 10.5 95 0.4 SW 11 22 6 12 1024.7 1024.7 6.8
29/05:00am 11.0 8.6 10.2 95 0.4 SW 13 20 7 11 1024.2 1024.2 6.8
29/04:30am 11.0 8.6 10.1 94 0.5 SW 13 20 7 11 1024.2 1024.2 6.8
29/04:00am 11.2 7.7 10.3 94 0.5 SW 19 26 10 14 1024.3 1024.3 6.8
29/03:30am 11.3 8.6 10.4 94 0.5 WSW 15 22 8 12 1024.5 1024.5 6.6
29/03:00am 11.3 8.6 10.4 94 0.5 SW 15 20 8 11 1024.9 1024.9 6.6
29/02:30am 11.2 8.9 10.3 94 0.5 SSW 13 19 7 10 1024.9 1024.9 6.6
29/02:00am 11.3 9.0 10.4 94 0.5 SW 13 26 7 14 1025.2 1025.2 6.6
29/01:30am 11.4 9.0 10.1 92 0.7 SW 13 20 7 11 1025.6 1025.6 5.6
29/01:00am 11.3 8.5 10.0 92 0.7 SW 15 19 8 10 1025.6 1025.6 5.2
29/12:30am 11.5 8.8 10.2 92 0.7 SW 15 24 8 13 1025.9 1025.9 5.2
29/12:00am 11.5 8.4 10.4 93 0.6 SSW 17 26 9 14 1026.1 1026.1 5.0
 
Date/Time
EST
Temp
°C
App
Temp
°C
Dew
Point
°C
Rel
Hum
%
Delta-T
°C
Wind Press
QNH
hPa
Press
MSL
hPa
Rain since
9am
mm
Dir  Spd
km/h
Gust
km/h
Spd
kts
Gust
kts
28/11:30pm 11.3 8.1 9.9 91 0.7 SW 17 24 9 13 1025.9 1025.9 4.8
28/11:00pm 11.4 7.8 10.0 91 0.7 SW 19 28 10 15 1026.1 1026.1 4.6
28/10:30pm 11.7 8.2 10.3 91 0.7 SW 19 28 10 15 1026.0 1026.0 4.6
28/10:00pm 11.9 8.3 10.5 91 0.7 SSW 20 35 11 19 1026.0 1026.0 4.4
28/09:30pm 11.8 7.8 10.4 91 0.7 SSW 22 30 12 16 1026.0 1026.0 4.0
28/09:00pm 11.8 7.4 10.5 92 0.7 SSW 24 35 13 19 1026.2 1026.2 4.0
28/08:30pm 11.8 8.2 10.5 92 0.7 SSW 20 33 11 18 1026.3 1026.3 4.0
28/08:00pm 11.9 8.5 10.6 92 0.7 SSW 19 32 10 17 1026.2 1026.2 3.8
28/07:30pm 12.4 8.9 10.8 90 0.8 SSW 20 30 11 16 1026.3 1026.3 3.8
28/07:00pm 12.7 9.3 11.1 90 0.8 SSW 20 35 11 19 1026.0 1026.0 3.6
28/06:30pm 12.6 8.2 10.5 87 1.1 SSW 24 39 13 21 1026.1 1026.1 1.2
28/06:00pm 12.9 9.1 11.3 90 0.8 SSW 22 30 12 16 1025.6 1025.6 1.2
28/05:30pm 13.5 9.3 11.0 85 1.3 SSW 24 37 13 20 1025.4 1025.4 1.0
28/05:00pm 14.0 8.7 11.3 84 1.4 S 30 52 16 28 1025.3 1025.3 1.0
28/04:58pm 14.0 9.2 11.7 86 1.2 S 28 52 15 28 1025.2 1025.2 1.0
28/04:30pm 13.4 8.9 11.3 87 1.1 SSW 26 41 14 22 1025.0 1025.0 1.0
28/04:19pm 13.6 8.8 11.8 89 1.0 S 28 48 15 26 1025.0 1025.0 1.0
28/04:00pm 14.7 11.1 10.7 77 2.1 SSW 20 32 11 17 1024.9 1024.9 0.0
28/03:31pm 15.0 9.9 10.6 75 2.3 S 28 46 15 25 1025.2 1025.2 0.0
28/03:30pm 15.0 9.9 10.6 75 2.3 S 28 43 15 23 1025.3 1025.3 0.0
28/03:00pm 15.6 10.6 10.8 73 2.5 S 28 46 15 25 1025.1 1025.1 0.0
28/02:36pm 16.3 10.1 10.2 67 3.2 S 33 52 18 28 1025.1 1025.1 0.0
28/02:30pm 16.6 10.6 10.0 65 3.5 S 32 48 17 26 1025.1 1025.1 0.0
28/02:01pm 16.8 10.6 9.2 61 4.0 S 32 50 17 27 1025.2 1025.2 0.0
28/02:00pm 17.0 10.9 9.7 62 3.8 S 32 48 17 26 1025.2 1025.2 0.0
28/01:31pm 17.0 10.6 10.6 66 3.4 S 35 54 19 29 1025.3 1025.3 0.0
28/01:30pm 16.9 9.9 10.1 64 3.6 S 37 54 20 29 1025.3 1025.3 0.0
28/01:02pm 17.1 10.6 10.2 64 3.7 S 35 56 19 30 1025.4 1025.4 0.0
28/01:00pm 16.7 9.6 9.6 63 3.7 S 37 50 20 27 1025.5 1025.5 0.0
28/12:44pm 17.2 11.1 9.9 62 3.9 S 32 50 17 27 1025.5 1025.5 0.0
28/12:30pm 16.8 9.9 10.2 65 3.5 S 37 50 20 27 1025.5 1025.5 0.0
28/12:00pm 15.4 9.3 10.4 72 2.6 S 33 46 18 25 1025.7 1025.7 0.0
28/11:30am 16.1 10.0 9.8 66 3.3 S 32 52 17 28 1026.1 1026.1 0.0
28/11:09am 15.7 10.2 9.1 65 3.4 S 28 46 15 25 1026.1 1026.1 0.0
28/11:00am 15.9 11.2 9.1 64 3.5 S 24 39 13 21 1026.3 1026.3 0.0
28/10:30am 15.8 10.0 8.1 60 3.9 S 28 43 15 23 1026.3 1026.3 0.0
28/10:00am 15.4 9.9 7.7 60 3.8 SSW 26 35 14 19 1026.3 1026.3 0.0
28/09:30am 14.7 9.1 7.0 60 3.8 SSW 26 37 14 20 1026.3 1026.3 0.0
28/09:00am 13.3 8.5 5.7 60 3.6 SW 20 32 11 17 1026.2 1026.2 0.0
28/08:30am 11.9 7.0 4.9 62 3.2 SW 20 28 11 15 1026.1 1026.1 0.0
28/08:00am 11.6 6.5 4.3 61 3.3 SW 20 30 11 16 1025.9 1025.9 0.0
28/07:30am 10.3 5.1 3.6 63 2.9 SW 20 30 11 16 1025.8 1025.8 0.0
28/07:00am 10.5 5.3 3.5 62 3.1 SW 20 28 11 15 1025.5 1025.5 0.0
28/06:30am 10.6 5.4 3.6 62 3.1 SW 20 24 11 13 1025.1 1025.1 0.0
28/06:00am 10.8 5.8 3.8 62 3.1 SW 19 26 10 14 1024.8 1024.8 0.0
28/05:30am 11.2 6.1 4.0 61 3.2 SW 20 30 11 16 1024.4 1024.4 0.0
28/05:00am 10.9 5.8 3.9 62 3.1 SW 20 32 11 17 1024.2 1024.2 0.0
28/04:30am 11.1 6.0 3.9 61 3.2 SW 20 30 11 16 1024.1 1024.1 0.0
28/04:00am 11.2 6.1 4.0 61 3.2 SW 20 28 11 15 1024.0 1024.0 0.0
28/03:30am 11.2 6.1 4.0 61 3.2 SW 20 32 11 17 1024.1 1024.1 0.0
28/03:00am 11.4 6.3 3.9 60 3.3 SW 20 30 11 16 1023.8 1023.8 0.0
28/02:30am 11.3 6.1 3.8 60 3.3 SW 20 32 11 17 1023.9 1023.9 0.0
28/02:00am 11.7 5.8 3.7 58 3.5 SSW 24 35 13 19 1024.1 1024.1 0.0
28/01:30am 11.8 5.8 3.3 56 3.8 SSW 24 35 13 19 1024.1 1024.1 0.0
28/01:00am 12.2 5.8 3.4 55 3.9 SSW 26 35 14 19 1024.2 1024.2 0.0
28/12:30am 12.4 6.1 3.6 55 3.9 SSW 26 39 14 21 1024.2 1024.2 0.0
28/12:00am 12.6 6.0 4.1 56 3.8 SSW 28 50 15 27 1024.4 1024.4 0.0
 
Date/Time
EST
Temp
°C
App
Temp
°C
Dew
Point
°C
Rel
Hum
%
Delta-T
°C
Wind Press
QNH
hPa
Press
MSL
hPa
Rain since
9am
mm
Dir  Spd
km/h
Gust
km/h
Spd
kts
Gust
kts
27/11:54pm 12.9 6.3 4.1 55 4.0 SSW 28 50 15 27 1024.4 1024.4 0.0
27/11:30pm 12.9 6.4 4.6 57 3.8 SSW 28 43 15 23 1024.5 1024.5 0.0
27/11:00pm 13.3 6.6 5.5 59 3.6 SSW 30 44 16 24 1024.5 1024.5 0.0
27/10:30pm 13.7 7.2 4.8 55 4.1 SSW 28 39 15 21 1024.6 1024.6 0.0
27/10:00pm 14.7 7.1 6.0 56 4.2 S 35 57 19 31 1024.6 1024.6 0.0
27/09:30pm 15.4 7.3 7.2 58 4.1 S 39 61 21 33 1024.0 1024.0 0.0
27/09:00pm 15.7 6.6 8.4 62 3.7 S 46 67 25 36 1023.7 1023.7 0.0
27/08:31pm 16.2 7.4 7.2 55 4.5 S 43 61 23 33 1023.4 1023.3 0.0
27/08:30pm 16.2 7.4 7.4 56 4.4 S 43 59 23 32 1023.4 1023.3 0.0
27/08:01pm 16.6 7.8 7.3 54 4.6 S 43 65 23 35 1022.9 1022.8 0.0
27/08:00pm 16.6 7.8 7.3 54 4.6 S 43 59 23 32 1023.0 1022.9 0.0
27/07:30pm 16.9 8.2 7.8 55 4.6 S 43 61 23 33 1022.8 1022.7 0.0
27/07:00pm 17.0 9.2 8.2 56 4.5 S 39 57 21 31 1022.6 1022.5 0.0
27/06:31pm 16.9 9.9 8.3 57 4.4 S 35 54 19 29 1022.6 1022.5 0.0
27/06:30pm 16.9 9.4 8.1 56 4.5 SSE 37 54 20 29 1022.6 1022.5 0.0
27/06:00pm 17.1 9.8 8.8 58 4.3 SSE 37 52 20 28 1022.0 1021.9 0.0
27/05:30pm 16.8 11.2 10.0 64 3.6 SSE 30 43 16 23 1021.6 1021.5 0.0
27/05:00pm 16.4 12.3 10.0 66 3.4 SSE 22 30 12 16 1021.4 1021.3 0.0
27/04:30pm 16.0 13.0 10.5 70 2.9 SSE 17 24 9 13 1021.1 1021.0 0.0
27/04:00pm 17.0 14.8 10.8 67 3.3 SSE 13 17 7 9 1020.8 1020.7 0.0
27/03:30pm 18.0 15.3 10.4 61 4.1 SSE 15 19 8 10 1020.6 1020.5 0.0
27/03:00pm 18.5 15.9 10.6 60 4.2 SSE 15 20 8 11 1020.6 1020.5 0.0
27/02:30pm 19.0 16.0 10.8 59 4.5 SSE 17 24 9 13 1020.7 1020.6 0.0
27/02:00pm 19.1 15.2 9.6 54 5.0 SSE 20 32 11 17 1020.6 1020.5 0.0
27/01:30pm 19.0 13.7 10.0 56 4.8 SSE 28 37 15 20 1020.5 1020.4 0.0
27/01:00pm 19.2 14.5 9.4 53 5.2 S 24 33 13 18 1020.8 1020.7 0.0
27/12:30pm 19.2 16.2 10.5 57 4.7 S 17 26 9 14 1021.2 1021.1 0.0
27/12:00pm 19.1 16.0 10.4 57 4.7 S 17 28 9 15 1021.7 1021.6 0.0
27/11:30am 18.5 14.5 9.0 54 5.0 S 20 32 11 17 1022.0 1021.9 0.0
27/11:00am 18.5 15.2 9.6 56 4.7 SSW 17 24 9 13 1022.5 1022.4 0.0
27/10:30am 17.5 14.1 9.2 58 4.3 SW 17 26 9 14 1022.8 1022.7 0.0
27/10:00am 17.0 14.0 7.9 55 4.6 SW 13 22 7 12 1022.8 1022.7 0.0
27/09:30am 15.4 12.1 8.2 62 3.6 WSW 15 22 8 12 1023.1 1023.0 0.0
27/09:00am 15.2 11.8 7.7 61 3.7 WNW 15 24 8 13 1023.0 1022.9 0.0
27/08:30am 14.0 10.7 8.0 67 3.0 WNW 15 22 8 12 1022.8 1022.7 0.0
27/08:00am 12.1 9.6 8.4 78 1.8 NNW 11 19 6 10 1022.3 1022.2 0.0
27/07:30am 11.9 9.2 7.2 73 2.3 WNW 11 19 6 10 1022.4 1022.3 0.0
27/07:00am 12.8 9.3 7.0 68 2.8 W 15 20 8 11 1022.5 1022.4 0.0
27/06:30am 13.5 9.6 7.3 66 3.0 WNW 17 24 9 13 1022.4 1022.3 0.0
27/06:00am 12.8 8.9 7.3 69 2.7 WNW 17 24 9 13 1022.6 1022.5 0.0
27/05:30am 12.9 9.5 7.6 70 2.6 WNW 15 22 8 12 1022.3 1022.2 0.0
27/05:00am 13.2 10.2 7.6 69 2.7 WNW 13 19 7 10 1022.3 1022.2 0.0
27/04:30am 13.3 10.4 8.0 70 2.6 WNW 13 20 7 11 1022.1 1022.0 0.0
27/04:00am 13.0 10.1 8.3 73 2.3 WNW 13 20 7 11 1022.2 1022.1 0.0
27/03:30am 13.0 11.8 9.6 80 1.7 W 6 9 3 5 1022.6 1022.5 0.0
27/03:00am 12.8 11.6 10.3 85 1.3 WSW 7 13 4 7 1023.1 1023.0 0.0
27/02:30am 12.8 11.8 8.9 77 2.0 SW 4 9 2 5 1023.4 1023.3 0.0
27/02:00am 11.6 10.2 9.5 87 1.1 NNW 7 13 4 7 1023.4 1023.3 0.0
27/01:30am 11.3 9.3 10.0 92 0.7 NNW 11 17 6 9 1023.5 1023.5 0.0
27/01:00am 11.3 9.3 10.2 93 0.6 NNW 11 17 6 9 1023.6 1023.6 0.0
27/12:30am 11.6 10.1 10.5 93 0.6 NNW 9 11 5 6 1023.9 1023.9 0.0
27/12:00am 12.0 10.2 10.9 93 0.6 NNW 11 15 6 8 1024.0 1024.0 0.0
 
Date/Time
EST
Temp
°C
App
Temp
°C
Dew
Point
°C
Rel
Hum
%
Delta-T
°C
Wind Press
QNH
hPa
Press
MSL
hPa
Rain since
9am
mm
Dir  Spd
km/h
Gust
km/h
Spd
kts
Gust
kts
26/11:30pm 12.3 10.5 11.0 92 0.7 NNW 11 13 6 7 1024.3 1024.3 0.0
26/11:00pm 12.8 11.6 11.5 92 0.7 NNW 9 13 5 7 1024.6 1024.6 0.0
26/10:30pm 13.3 11.8 12.0 92 0.7 NNW 11 13 6 7 1024.3 1024.3 0.0
26/10:00pm 13.0 11.8 11.7 92 0.7 NNW 9 11 5 6 1024.4 1024.4 0.0
26/09:30pm 13.1 12.0 11.8 92 0.7 NNW 9 11 5 6 1024.3 1024.3 0.0
26/09:00pm 13.3 12.1 11.7 90 0.9 NNW 9 11 5 6 1024.4 1024.4 0.0

Other formats

Comma delimited format used in spreadsheet applications
http://www.bom.gov.au/fwo/IDN60801/IDN60801.94598.axf

JavaScript Object Notation format (JSON) in row-major order
http://www.bom.gov.au/fwo/IDN60801/IDN60801.94598.json

Data quality

Most of these data are generated automatically and are frequently updated. Quality checks on data are not normally performed. It is possible for incorrect values to appear. Refer to information at About Latest Weather Observations and please check the disclaimer before using these data.